Overview Statistics Trail Chart Weather Telemetry Raw packets
 

This is the latest recevied weather packets stored in our database for station/object G4WLC-1. If no packets are shown the sender has not sent any weather packets the latest 10 day(s).

<< 67 68 69 70 71 72 73 >>
Time Temp. Humidity Pressure Rain* Wind** Luminosity Snow
1788190632 18.33° C 72% 1016.4 hPa 0 mm - - -
1788190332 18.33° C 73% 1016.3 hPa 0 mm - - -
1788190032 18.33° C 73% 1016.4 hPa 0 mm - - -
1788189732 18.33° C 73% 1016.3 hPa 0 mm - - -
1788189432 18.33° C 72% 1016.2 hPa 0 mm - - -
1788189132 18.33° C 73% 1016.1 hPa 0 mm - - -
1788188832 18.89° C 72% 1016 hPa 0 mm - - -
1788188533 18.89° C 72% 1016 hPa 0 mm - - -
1788188233 18.89° C 71% 1016 hPa 0 mm - - -
1788187933 18.89° C 70% 1015.9 hPa 0 mm - - -
1788187632 18.89° C 71% 1015.8 hPa 0 mm - - -
1788187332 19.44° C 71% 1015.7 hPa 0 mm - - -
1788187032 20° C 69% 1015.9 hPa 0 mm - - -
1788186733 20.56° C 70% 1015.8 hPa 0 mm - - -
1788186433 21.11° C 67% 1015.8 hPa 0 mm - - -
1788186133 20° C 69% 1015.5 hPa 0 mm - - -
1788185832 20° C 65% 1015.7 hPa 0 mm - - -
1788185532 20.56° C 66% 1015.5 hPa 0 mm - - -
1788185233 20.56° C 68% 1015.4 hPa 0 mm - - -
1788184933 20.56° C 70% 1015.2 hPa 0 mm - - -
1788184633 21.11° C 68% 1015.1 hPa 0 mm - - -
1788184333 21.11° C 70% 1015.1 hPa 0 mm - - -
1788184033 21.11° C 70% 1015 hPa 0 mm - - -
1788183733 20.56° C 70% 1015 hPa 0 mm - - -
1788183433 20.56° C 71% 1015 hPa 0 mm - - -

* Rain latest hour (hover to see other rain measurements)
** Current wind speed in m/s (hover to see current wind gust speed)